sensor_id;sensor_type;location;lat;lon;timestamp;temperature;humidity
41080;DHT22;26826;50.718;7.114;2024-01-30T00:09:50;8.30;99.90
41080;DHT22;26826;50.718;7.114;2024-01-30T00:19:50;8.30;99.90
41080;DHT22;26826;50.718;7.114;2024-01-30T00:29:50;8.30;99.90
41080;DHT22;26826;50.718;7.114;2024-01-30T00:39:51;8.20;99.90
41080;DHT22;26826;50.718;7.114;2024-01-30T00:49:51;8.30;99.90
41080;DHT22;26826;50.718;7.114;2024-01-30T00:59:52;8.20;99.90
41080;DHT22;26826;50.718;7.114;2024-01-30T01:09:52;8.20;99.90
41080;DHT22;26826;50.718;7.114;2024-01-30T01:19:53;8.10;99.90
41080;DHT22;26826;50.718;7.114;2024-01-30T01:29:53;8.00;99.90
41080;DHT22;26826;50.718;7.114;2024-01-30T01:39:53;8.00;99.90
41080;DHT22;26826;50.718;7.114;2024-01-30T01:49:54;8.00;99.90
41080;DHT22;26826;50.718;7.114;2024-01-30T01:59:54;8.00;99.90
41080;DHT22;26826;50.718;7.114;2024-01-30T02:09:55;8.00;99.90
41080;DHT22;26826;50.718;7.114;2024-01-30T02:19:55;8.00;99.90
41080;DHT22;26826;50.718;7.114;2024-01-30T02:29:56;8.00;99.90
41080;DHT22;26826;50.718;7.114;2024-01-30T02:39:56;8.00;99.90
41080;DHT22;26826;50.718;7.114;2024-01-30T02:49:56;8.00;99.90
41080;DHT22;26826;50.718;7.114;2024-01-30T02:59:57;8.00;99.90
41080;DHT22;26826;50.718;7.114;2024-01-30T03:09:57;8.00;99.90
41080;DHT22;26826;50.718;7.114;2024-01-30T03:19:58;8.00;99.90
41080;DHT22;26826;50.718;7.114;2024-01-30T03:29:58;8.00;99.90
41080;DHT22;26826;50.718;7.114;2024-01-30T03:39:59;7.90;99.90
41080;DHT22;26826;50.718;7.114;2024-01-30T03:49:59;7.80;99.90
41080;DHT22;26826;50.718;7.114;2024-01-30T03:59:59;7.80;99.90
41080;DHT22;26826;50.718;7.114;2024-01-30T04:10:00;7.70;99.90
41080;DHT22;26826;50.718;7.114;2024-01-30T04:20:00;7.60;99.90
41080;DHT22;26826;50.718;7.114;2024-01-30T04:30:01;7.60;99.90
41080;DHT22;26826;50.718;7.114;2024-01-30T04:40:01;7.60;99.90
41080;DHT22;26826;50.718;7.114;2024-01-30T04:50:03;7.50;99.90
41080;DHT22;26826;50.718;7.114;2024-01-30T05:00:05;7.40;99.90
41080;DHT22;26826;50.718;7.114;2024-01-30T05:10:06;7.40;99.90
41080;DHT22;26826;50.718;7.114;2024-01-30T05:20:06;7.40;99.90
41080;DHT22;26826;50.718;7.114;2024-01-30T05:30:07;7.30;99.90
41080;DHT22;26826;50.718;7.114;2024-01-30T05:40:08;7.30;99.90
41080;DHT22;26826;50.718;7.114;2024-01-30T05:50:08;7.30;99.90
41080;DHT22;26826;50.718;7.114;2024-01-30T06:00:09;7.30;99.90
41080;DHT22;26826;50.718;7.114;2024-01-30T06:10:09;7.30;99.90
41080;DHT22;26826;50.718;7.114;2024-01-30T06:20:10;7.20;99.90
41080;DHT22;26826;50.718;7.114;2024-01-30T06:30:11;7.20;99.90
41080;DHT22;26826;50.718;7.114;2024-01-30T06:40:11;7.20;99.90
41080;DHT22;26826;50.718;7.114;2024-01-30T06:50:12;7.20;99.90
41080;DHT22;26826;50.718;7.114;2024-01-30T07:00:12;7.20;99.90
41080;DHT22;26826;50.718;7.114;2024-01-30T07:10:14;7.20;99.90
41080;DHT22;26826;50.718;7.114;2024-01-30T07:20:14;7.30;99.90
41080;DHT22;26826;50.718;7.114;2024-01-30T07:30:15;7.20;99.90
41080;DHT22;26826;50.718;7.114;2024-01-30T07:40:17;7.20;99.90
41080;DHT22;26826;50.718;7.114;2024-01-30T07:50:18;7.20;99.90
41080;DHT22;26826;50.718;7.114;2024-01-30T08:00:21;7.30;99.90
41080;DHT22;26826;50.718;7.114;2024-01-30T08:10:21;7.30;99.90
41080;DHT22;26826;50.718;7.114;2024-01-30T08:20:22;7.50;99.90
41080;DHT22;26826;50.718;7.114;2024-01-30T08:30:22;7.70;99.90
41080;DHT22;26826;50.718;7.114;2024-01-30T08:40:23;7.80;99.90
41080;DHT22;26826;50.718;7.114;2024-01-30T08:50:23;7.80;99.90
41080;DHT22;26826;50.718;7.114;2024-01-30T09:00:24;7.80;99.90
41080;DHT22;26826;50.718;7.114;2024-01-30T09:10:24;8.00;99.90
41080;DHT22;26826;50.718;7.114;2024-01-30T09:20:25;8.40;99.90
41080;DHT22;26826;50.718;7.114;2024-01-30T09:30:25;8.60;99.90
41080;DHT22;26826;50.718;7.114;2024-01-30T09:40:25;8.80;99.90
41080;DHT22;26826;50.718;7.114;2024-01-30T09:50:26;9.40;99.90
41080;DHT22;26826;50.718;7.114;2024-01-30T10:00:26;10.30;99.90
41080;DHT22;26826;50.718;7.114;2024-01-30T10:10:27;10.60;99.90
41080;DHT22;26826;50.718;7.114;2024-01-30T10:20:28;10.80;99.90
41080;DHT22;26826;50.718;7.114;2024-01-30T10:30:28;10.60;99.90
41080;DHT22;26826;50.718;7.114;2024-01-30T10:40:29;10.40;99.90
41080;DHT22;26826;50.718;7.114;2024-01-30T10:50:29;10.20;99.90
41080;DHT22;26826;50.718;7.114;2024-01-30T11:00:30;10.30;99.90
41080;DHT22;26826;50.718;7.114;2024-01-30T11:10:33;10.40;99.90
41080;DHT22;26826;50.718;7.114;2024-01-30T11:20:44;10.30;99.90
41080;DHT22;26826;50.718;7.114;2024-01-30T11:30:47;10.10;99.90
41080;DHT22;26826;50.718;7.114;2024-01-30T11:40:47;10.10;99.90
41080;DHT22;26826;50.718;7.114;2024-01-30T11:50:48;10.10;99.90
41080;DHT22;26826;50.718;7.114;2024-01-30T12:00:55;10.30;99.90
41080;DHT22;26826;50.718;7.114;2024-01-30T12:10:58;10.30;99.90
41080;DHT22;26826;50.718;7.114;2024-01-30T12:21:01;10.50;99.90
41080;DHT22;26826;50.718;7.114;2024-01-30T12:31:02;10.70;99.90
41080;DHT22;26826;50.718;7.114;2024-01-30T12:41:03;11.00;99.90
41080;DHT22;26826;50.718;7.114;2024-01-30T12:51:04;10.90;99.90
41080;DHT22;26826;50.718;7.114;2024-01-30T13:01:04;10.90;99.90
41080;DHT22;26826;50.718;7.114;2024-01-30T13:11:05;10.80;99.90
41080;DHT22;26826;50.718;7.114;2024-01-30T13:21:05;11.00;99.90
41080;DHT22;26826;50.718;7.114;2024-01-30T13:31:06;10.90;99.90
41080;DHT22;26826;50.718;7.114;2024-01-30T13:41:06;10.80;99.90
41080;DHT22;26826;50.718;7.114;2024-01-30T13:51:07;10.90;99.90
41080;DHT22;26826;50.718;7.114;2024-01-30T14:01:07;11.10;99.90
41080;DHT22;26826;50.718;7.114;2024-01-30T14:11:10;11.20;99.90
41080;DHT22;26826;50.718;7.114;2024-01-30T14:21:10;11.30;99.90
41080;DHT22;26826;50.718;7.114;2024-01-30T14:31:11;11.30;99.90
41080;DHT22;26826;50.718;7.114;2024-01-30T14:41:11;11.40;99.90
41080;DHT22;26826;50.718;7.114;2024-01-30T14:51:12;11.40;99.90
41080;DHT22;26826;50.718;7.114;2024-01-30T15:01:12;11.20;99.90
41080;DHT22;26826;50.718;7.114;2024-01-30T15:11:13;11.10;99.90
41080;DHT22;26826;50.718;7.114;2024-01-30T15:21:13;11.10;99.90
41080;DHT22;26826;50.718;7.114;2024-01-30T15:31:14;11.00;99.90
41080;DHT22;26826;50.718;7.114;2024-01-30T15:41:14;11.10;99.90
41080;DHT22;26826;50.718;7.114;2024-01-30T15:51:15;11.00;99.90
41080;DHT22;26826;50.718;7.114;2024-01-30T16:01:15;11.00;99.90
41080;DHT22;26826;50.718;7.114;2024-01-30T16:11:17;11.00;99.90
41080;DHT22;26826;50.718;7.114;2024-01-30T16:21:17;10.90;99.90
41080;DHT22;26826;50.718;7.114;2024-01-30T16:31:18;10.90;99.90
41080;DHT22;26826;50.718;7.114;2024-01-30T16:41:20;10.80;99.90
41080;DHT22;26826;50.718;7.114;2024-01-30T16:51:21;10.60;99.90
41080;DHT22;26826;50.718;7.114;2024-01-30T17:01:21;10.60;99.90
41080;DHT22;26826;50.718;7.114;2024-01-30T17:11:22;10.70;99.90
41080;DHT22;26826;50.718;7.114;2024-01-30T17:21:23;10.90;99.90
41080;DHT22;26826;50.718;7.114;2024-01-30T17:31:23;10.80;99.90
41080;DHT22;26826;50.718;7.114;2024-01-30T17:41:24;10.80;99.90
41080;DHT22;26826;50.718;7.114;2024-01-30T17:51:24;10.60;99.90
41080;DHT22;26826;50.718;7.114;2024-01-30T18:01:25;10.50;99.90
41080;DHT22;26826;50.718;7.114;2024-01-30T18:11:25;10.40;99.90
41080;DHT22;26826;50.718;7.114;2024-01-30T18:21:26;10.40;99.90
41080;DHT22;26826;50.718;7.114;2024-01-30T18:31:26;10.30;99.90
41080;DHT22;26826;50.718;7.114;2024-01-30T18:41:27;10.30;99.90
41080;DHT22;26826;50.718;7.114;2024-01-30T18:51:27;10.20;99.90
41080;DHT22;26826;50.718;7.114;2024-01-30T19:01:28;10.20;99.90
41080;DHT22;26826;50.718;7.114;2024-01-30T19:11:28;10.10;99.90
41080;DHT22;26826;50.718;7.114;2024-01-30T19:21:29;10.00;99.90
41080;DHT22;26826;50.718;7.114;2024-01-30T19:31:29;10.00;99.90
41080;DHT22;26826;50.718;7.114;2024-01-30T19:41:29;10.00;99.90
41080;DHT22;26826;50.718;7.114;2024-01-30T19:51:30;9.90;99.90
41080;DHT22;26826;50.718;7.114;2024-01-30T20:01:30;9.80;99.90
41080;DHT22;26826;50.718;7.114;2024-01-30T20:11:31;9.80;99.90
41080;DHT22;26826;50.718;7.114;2024-01-30T20:21:31;9.70;99.90
41080;DHT22;26826;50.718;7.114;2024-01-30T20:31:32;9.70;99.90
41080;DHT22;26826;50.718;7.114;2024-01-30T20:41:37;9.60;99.90
41080;DHT22;26826;50.718;7.114;2024-01-30T20:51:38;9.50;99.90
41080;DHT22;26826;50.718;7.114;2024-01-30T21:01:39;9.40;99.90
41080;DHT22;26826;50.718;7.114;2024-01-30T21:11:39;9.40;99.90
41080;DHT22;26826;50.718;7.114;2024-01-30T21:21:40;9.30;99.90
41080;DHT22;26826;50.718;7.114;2024-01-30T21:31:43;9.30;99.90
41080;DHT22;26826;50.718;7.114;2024-01-30T21:41:45;9.10;99.90
41080;DHT22;26826;50.718;7.114;2024-01-30T21:51:45;9.10;99.90
41080;DHT22;26826;50.718;7.114;2024-01-30T22:01:46;9.10;99.90
41080;DHT22;26826;50.718;7.114;2024-01-30T22:11:46;9.00;99.90
41080;DHT22;26826;50.718;7.114;2024-01-30T22:21:46;9.00;99.90
41080;DHT22;26826;50.718;7.114;2024-01-30T22:31:47;8.90;99.90
41080;DHT22;26826;50.718;7.114;2024-01-30T22:41:47;8.90;99.90
41080;DHT22;26826;50.718;7.114;2024-01-30T22:51:48;8.90;99.90
41080;DHT22;26826;50.718;7.114;2024-01-30T23:01:49;8.90;99.90
41080;DHT22;26826;50.718;7.114;2024-01-30T23:11:49;8.80;99.90
41080;DHT22;26826;50.718;7.114;2024-01-30T23:21:50;8.80;99.90
41080;DHT22;26826;50.718;7.114;2024-01-30T23:31:51;8.60;99.90
41080;DHT22;26826;50.718;7.114;2024-01-30T23:41:51;8.50;99.90
41080;DHT22;26826;50.718;7.114;2024-01-30T23:51:52;8.40;99.90
